SAS6307 ESGG-ESSV
Flight info
| Callsign | SAS6307 |
|---|---|
| Flight time | 0h 39m |
| Altitude | 29000 |
| Route | LUKAX DCT LCF DCT KOXIM DCT ON DCT ITFAX DCT HANSA |
| Aircraft | A320/M-SDE3FGHIJ1RWXYZ/ALB1 |
Departure
| Time | 2026-05-03 21:42 |
|---|---|
| Airport | Göteborg Landvetter Airport (ESGG) |
Arrival
| Time | 2026-05-03 22:21 |
|---|---|
| Airport | Visby Airport (ESSV) |
| Time | Latitude | Longitude | Altitude | Speed | Heading |
|---|---|---|---|---|---|
| 2026-05-03 20:46 | 57.66778 | 12.29311 | 516 ft | 0 kts | 116° |
| 2026-05-03 21:04 | 57.66778 | 12.29310 | 516 ft | 0 kts | 116° |
| 2026-05-03 21:09 | 57.66779 | 12.29310 | 516 ft | 0 kts | 116° |
| 2026-05-03 21:29 | 57.66779 | 12.29309 | 516 ft | 0 kts | 116° |
| 2026-05-03 21:29 | 57.66780 | 12.29306 | 516 ft | 2 kts | 116° |
| 2026-05-03 21:30 | 57.66790 | 12.29268 | 516 ft | 2 kts | 116° |
| 2026-05-03 21:30 | 57.66803 | 12.29240 | 516 ft | 4 kts | 139° |
| 2026-05-03 21:30 | 57.66814 | 12.29210 | 516 ft | 4 kts | 75° |
| 2026-05-03 21:30 | 57.66799 | 12.29187 | 516 ft | 4 kts | 23° |
| 2026-05-03 21:31 | 57.66776 | 12.29168 | 516 ft | 4 kts | 25° |
| 2026-05-03 21:31 | 57.66753 | 12.29147 | 516 ft | 2 kts | 26° |
| 2026-05-03 21:31 | 57.66752 | 12.29146 | 516 ft | 1 kts | 26° |
| 2026-05-03 21:36 | 57.66764 | 12.29147 | 516 ft | 1 kts | 334° |
| 2026-05-03 21:36 | 57.66774 | 12.29106 | 516 ft | 9 kts | 297° |
| 2026-05-03 21:37 | 57.66825 | 12.28995 | 516 ft | 12 kts | 357° |
| 2026-05-03 21:37 | 57.66905 | 12.29061 | 516 ft | 13 kts | 27° |
| 2026-05-03 21:37 | 57.66988 | 12.29136 | 516 ft | 14 kts | 26° |
| 2026-05-03 21:37 | 57.67081 | 12.29222 | 516 ft | 16 kts | 26° |
| 2026-05-03 21:38 | 57.67186 | 12.29316 | 516 ft | 17 kts | 25° |
| 2026-05-03 21:38 | 57.67296 | 12.29418 | 516 ft | 18 kts | 26° |
| 2026-05-03 21:38 | 57.67403 | 12.29480 | 516 ft | 14 kts | 337° |
| 2026-05-03 21:38 | 57.67452 | 12.29323 | 516 ft | 14 kts | 296° |
| 2026-05-03 21:39 | 57.67461 | 12.29266 | 515 ft | 0 kts | 275° |
| 2026-05-03 21:40 | 57.67461 | 12.29256 | 515 ft | 3 kts | 274° |
| 2026-05-03 21:40 | 57.67459 | 12.29171 | 514 ft | 11 kts | 264° |
| 2026-05-03 21:40 | 57.67425 | 12.29021 | 515 ft | 14 kts | 218° |
| 2026-05-03 21:41 | 57.67277 | 12.28883 | 515 ft | 52 kts | 206° |
| 2026-05-03 21:41 | 57.66836 | 12.28483 | 513 ft | 96 kts | 206° |
| 2026-05-03 21:41 | 57.66071 | 12.27788 | 508 ft | 146 kts | 206° |
| 2026-05-03 21:41 | 57.65042 | 12.26878 | 709 ft | 171 kts | 205° |
| 2026-05-03 21:42 | 57.63947 | 12.25895 | 1227 ft | 181 kts | 207° |
| 2026-05-03 21:42 | 57.62747 | 12.24894 | 1728 ft | 199 kts | 194° |
| 2026-05-03 21:42 | 57.61341 | 12.25108 | 2379 ft | 211 kts | 165° |
| 2026-05-03 21:42 | 57.59965 | 12.26140 | 3142 ft | 216 kts | 158° |
| 2026-05-03 21:43 | 57.58595 | 12.27356 | 3900 ft | 220 kts | 156° |
| 2026-05-03 21:43 | 57.57288 | 12.28867 | 4691 ft | 226 kts | 133° |
| 2026-05-03 21:43 | 57.56658 | 12.31548 | 5412 ft | 234 kts | 93° |
| 2026-05-03 21:43 | 57.56991 | 12.34536 | 6160 ft | 240 kts | 70° |
| 2026-05-03 21:44 | 57.57597 | 12.37451 | 6890 ft | 244 kts | 69° |
| 2026-05-03 21:44 | 57.58246 | 12.40404 | 7598 ft | 248 kts | 68° |
| 2026-05-03 21:44 | 57.58922 | 12.43456 | 8105 ft | 265 kts | 68° |
| 2026-05-03 21:44 | 57.59652 | 12.46786 | 8464 ft | 289 kts | 69° |
| 2026-05-03 21:45 | 57.60416 | 12.50335 | 9093 ft | 300 kts | 69° |
| 2026-05-03 21:45 | 57.61193 | 12.53987 | 9862 ft | 305 kts | 69° |
| 2026-05-03 21:45 | 57.61995 | 12.57774 | 10227 ft | 326 kts | 69° |
| 2026-05-03 21:45 | 57.62795 | 12.61869 | 10504 ft | 344 kts | 72° |
| 2026-05-03 21:46 | 57.63538 | 12.66180 | 11093 ft | 352 kts | 74° |
| 2026-05-03 21:46 | 57.64249 | 12.70590 | 11742 ft | 358 kts | 75° |
| 2026-05-03 21:46 | 57.64955 | 12.75075 | 12410 ft | 363 kts | 75° |
| 2026-05-03 21:46 | 57.65672 | 12.79631 | 13007 ft | 369 kts | 75° |
| 2026-05-03 21:47 | 57.66410 | 12.84279 | 13593 ft | 377 kts | 75° |
| 2026-05-03 21:47 | 57.67172 | 12.89000 | 14169 ft | 382 kts | 75° |
| 2026-05-03 21:47 | 57.67948 | 12.93776 | 14768 ft | 387 kts | 75° |
| 2026-05-03 21:47 | 57.68734 | 12.98612 | 15368 ft | 391 kts | 75° |
| 2026-05-03 21:48 | 57.69524 | 13.03493 | 15962 ft | 394 kts | 75° |
| 2026-05-03 21:48 | 57.70323 | 13.08423 | 16554 ft | 398 kts | 75° |
| 2026-05-03 21:48 | 57.71118 | 13.13409 | 17145 ft | 402 kts | 77° |
| 2026-05-03 21:48 | 57.71601 | 13.18565 | 17727 ft | 404 kts | 86° |
| 2026-05-03 21:49 | 57.71915 | 13.23805 | 18293 ft | 408 kts | 86° |
| 2026-05-03 21:49 | 57.72231 | 13.29106 | 18841 ft | 411 kts | 86° |
| 2026-05-03 21:49 | 57.72550 | 13.34448 | 19390 ft | 415 kts | 86° |
| 2026-05-03 21:49 | 57.72869 | 13.39834 | 19948 ft | 418 kts | 86° |
| 2026-05-03 21:50 | 57.73191 | 13.45261 | 20479 ft | 421 kts | 86° |
| 2026-05-03 21:50 | 57.73515 | 13.50720 | 21039 ft | 424 kts | 86° |
| 2026-05-03 21:50 | 57.73839 | 13.56213 | 21571 ft | 427 kts | 86° |
| 2026-05-03 21:50 | 57.74165 | 13.61749 | 22098 ft | 430 kts | 86° |
| 2026-05-03 21:51 | 57.74490 | 13.67337 | 22617 ft | 434 kts | 87° |
| 2026-05-03 21:51 | 57.74815 | 13.72988 | 23087 ft | 439 kts | 87° |
| 2026-05-03 21:51 | 57.75137 | 13.78692 | 23567 ft | 443 kts | 87° |
| 2026-05-03 21:51 | 57.75456 | 13.84450 | 23994 ft | 446 kts | 87° |
| 2026-05-03 21:52 | 57.75776 | 13.90247 | 24408 ft | 449 kts | 87° |
| 2026-05-03 21:52 | 57.76097 | 13.96084 | 24803 ft | 453 kts | 87° |
| 2026-05-03 21:52 | 57.76417 | 14.01963 | 25193 ft | 456 kts | 87° |
| 2026-05-03 21:52 | 57.76739 | 14.07892 | 25566 ft | 459 kts | 87° |
| 2026-05-03 21:53 | 57.77062 | 14.13849 | 25980 ft | 461 kts | 87° |
| 2026-05-03 21:53 | 57.77385 | 14.19846 | 26373 ft | 464 kts | 87° |
| 2026-05-03 21:53 | 57.77708 | 14.25872 | 26749 ft | 467 kts | 87° |
| 2026-05-03 21:53 | 57.78028 | 14.31942 | 27115 ft | 469 kts | 87° |
| 2026-05-03 21:54 | 57.78342 | 14.38053 | 27467 ft | 473 kts | 88° |
| 2026-05-03 21:54 | 57.78652 | 14.44201 | 27821 ft | 475 kts | 88° |
| 2026-05-03 21:54 | 57.78960 | 14.50391 | 28177 ft | 478 kts | 88° |
| 2026-05-03 21:54 | 57.79270 | 14.56615 | 28519 ft | 481 kts | 88° |
| 2026-05-03 21:55 | 57.79583 | 14.62882 | 28801 ft | 486 kts | 88° |
| 2026-05-03 21:55 | 57.79898 | 14.69247 | 28865 ft | 495 kts | 88° |
| 2026-05-03 21:55 | 57.80540 | 14.82322 | 28858 ft | 512 kts | 88° |
| 2026-05-03 21:56 | 57.81189 | 14.95797 | 28857 ft | 524 kts | 88° |
| 2026-05-03 21:56 | 57.81824 | 15.09516 | 28851 ft | 531 kts | 88° |
| 2026-05-03 21:57 | 57.82439 | 15.23287 | 28898 ft | 534 kts | 88° |
| 2026-05-03 21:57 | 57.83065 | 15.37270 | 29029 ft | 535 kts | 88° |
| 2026-05-03 21:58 | 57.83370 | 15.44216 | 29164 ft | 534 kts | 88° |
| 2026-05-03 21:58 | 57.83666 | 15.51063 | 29277 ft | 533 kts | 88° |
| 2026-05-03 21:58 | 57.84245 | 15.64864 | 28993 ft | 512 kts | 88° |
| 2026-05-03 21:59 | 57.84519 | 15.71427 | 28716 ft | 498 kts | 88° |
| 2026-05-03 21:59 | 57.84781 | 15.77825 | 28443 ft | 486 kts | 88° |
| 2026-05-03 21:59 | 57.85034 | 15.84083 | 28170 ft | 475 kts | 88° |
| 2026-05-03 21:59 | 57.85276 | 15.90198 | 27899 ft | 465 kts | 89° |
| 2026-05-03 22:00 | 57.85509 | 15.96204 | 27630 ft | 456 kts | 89° |
| 2026-05-03 22:00 | 57.85732 | 16.02014 | 27360 ft | 449 kts | 88° |
| 2026-05-03 22:00 | 57.85954 | 16.07818 | 27096 ft | 442 kts | 89° |
| 2026-05-03 22:00 | 57.86174 | 16.13608 | 26834 ft | 436 kts | 89° |
| 2026-05-03 22:01 | 57.86383 | 16.19179 | 26578 ft | 431 kts | 89° |
| 2026-05-03 22:01 | 57.86590 | 16.24774 | 26321 ft | 427 kts | 89° |
| 2026-05-03 22:01 | 57.86791 | 16.30302 | 26071 ft | 423 kts | 89° |
| 2026-05-03 22:01 | 57.86986 | 16.35797 | 25821 ft | 420 kts | 89° |
| 2026-05-03 22:02 | 57.87182 | 16.41333 | 25549 ft | 417 kts | 89° |
| 2026-05-03 22:02 | 57.87370 | 16.46765 | 25109 ft | 418 kts | 89° |
| 2026-05-03 22:02 | 57.87555 | 16.52145 | 24650 ft | 419 kts | 89° |
| 2026-05-03 22:02 | 57.87746 | 16.57622 | 24177 ft | 421 kts | 89° |
| 2026-05-03 22:03 | 57.87939 | 16.63196 | 23693 ft | 423 kts | 89° |
| 2026-05-03 22:03 | 57.88126 | 16.68731 | 23129 ft | 425 kts | 88° |
| 2026-05-03 22:03 | 57.88308 | 16.74266 | 22660 ft | 424 kts | 88° |
| 2026-05-03 22:03 | 57.88482 | 16.79694 | 22222 ft | 422 kts | 89° |
| 2026-05-03 22:04 | 57.88656 | 16.85188 | 21874 ft | 418 kts | 89° |
| 2026-05-03 22:04 | 57.88827 | 16.90610 | 21461 ft | 415 kts | 89° |
| 2026-05-03 22:04 | 57.88995 | 16.96006 | 21033 ft | 412 kts | 89° |
| 2026-05-03 22:04 | 57.89159 | 17.01367 | 20620 ft | 410 kts | 89° |
| 2026-05-03 22:05 | 57.89320 | 17.06672 | 19882 ft | 405 kts | 89° |
| 2026-05-03 22:05 | 57.89473 | 17.11781 | 19189 ft | 399 kts | 89° |
| 2026-05-03 22:05 | 57.89627 | 17.16916 | 18714 ft | 387 kts | 89° |
| 2026-05-03 22:05 | 57.89775 | 17.21889 | 18252 ft | 376 kts | 89° |
| 2026-05-03 22:06 | 57.89914 | 17.26728 | 17758 ft | 366 kts | 89° |
| 2026-05-03 22:06 | 57.90048 | 17.31429 | 17300 ft | 355 kts | 89° |
| 2026-05-03 22:06 | 57.90174 | 17.35988 | 16897 ft | 345 kts | 89° |
| 2026-05-03 22:06 | 57.90295 | 17.40438 | 16479 ft | 337 kts | 89° |
| 2026-05-03 22:07 | 57.90413 | 17.44840 | 16069 ft | 337 kts | 89° |
| 2026-05-03 22:07 | 57.90531 | 17.49235 | 15652 ft | 336 kts | 89° |
| 2026-05-03 22:07 | 57.90647 | 17.53623 | 15245 ft | 338 kts | 89° |
| 2026-05-03 22:07 | 57.90762 | 17.58053 | 14837 ft | 341 kts | 89° |
| 2026-05-03 22:08 | 57.90877 | 17.62514 | 14420 ft | 343 kts | 89° |
| 2026-05-03 22:08 | 57.90992 | 17.67017 | 13999 ft | 346 kts | 89° |
| 2026-05-03 22:08 | 57.91109 | 17.71557 | 13564 ft | 349 kts | 89° |
| 2026-05-03 22:08 | 57.91137 | 17.76117 | 13113 ft | 348 kts | 98° |
| 2026-05-03 22:09 | 57.90653 | 17.80531 | 12721 ft | 342 kts | 113° |
| 2026-05-03 22:09 | 57.89652 | 17.84525 | 12342 ft | 334 kts | 128° |
| 2026-05-03 22:09 | 57.88241 | 17.87922 | 11968 ft | 327 kts | 138° |
| 2026-05-03 22:10 | 57.85726 | 17.93215 | 11350 ft | 326 kts | 137° |
| 2026-05-03 22:10 | 57.84220 | 17.96399 | 10980 ft | 326 kts | 137° |
| 2026-05-03 22:10 | 57.82717 | 17.99575 | 10609 ft | 325 kts | 137° |
| 2026-05-03 22:10 | 57.81229 | 18.02701 | 10448 ft | 316 kts | 139° |
| 2026-05-03 22:11 | 57.79535 | 18.05074 | 10255 ft | 296 kts | 162° |
| 2026-05-03 22:11 | 57.77604 | 18.06001 | 9786 ft | 280 kts | 185° |
| 2026-05-03 22:11 | 57.75740 | 18.05489 | 9194 ft | 264 kts | 206° |
| 2026-05-03 22:11 | 57.74143 | 18.04028 | 8813 ft | 250 kts | 211° |
| 2026-05-03 22:12 | 57.72587 | 18.02734 | 8495 ft | 240 kts | 206° |
| 2026-05-03 22:12 | 57.70979 | 18.01730 | 8218 ft | 240 kts | 201° |
| 2026-05-03 22:12 | 57.69421 | 18.01061 | 8088 ft | 225 kts | 196° |
| 2026-05-03 22:12 | 57.67909 | 18.00658 | 7829 ft | 217 kts | 192° |
| 2026-05-03 22:13 | 57.66407 | 18.00492 | 7413 ft | 216 kts | 187° |
| 2026-05-03 22:13 | 57.64900 | 18.00562 | 7034 ft | 217 kts | 182° |
| 2026-05-03 22:13 | 57.63391 | 18.00853 | 6717 ft | 219 kts | 178° |
| 2026-05-03 22:13 | 57.61889 | 18.01371 | 6408 ft | 220 kts | 173° |
| 2026-05-03 22:14 | 57.60410 | 18.02122 | 6094 ft | 221 kts | 168° |
| 2026-05-03 22:14 | 57.58987 | 18.03100 | 5775 ft | 215 kts | 163° |
| 2026-05-03 22:14 | 57.57652 | 18.04260 | 5467 ft | 209 kts | 158° |
| 2026-05-03 22:14 | 57.56410 | 18.05572 | 5203 ft | 202 kts | 154° |
| 2026-05-03 22:15 | 57.55284 | 18.06984 | 4995 ft | 191 kts | 150° |
| 2026-05-03 22:15 | 57.54241 | 18.08491 | 4671 ft | 188 kts | 146° |
| 2026-05-03 22:15 | 57.53282 | 18.10102 | 4382 ft | 183 kts | 142° |
| 2026-05-03 22:15 | 57.52408 | 18.11792 | 4130 ft | 179 kts | 137° |
| 2026-05-03 22:16 | 57.51622 | 18.13524 | 3881 ft | 171 kts | 134° |
| 2026-05-03 22:16 | 57.50943 | 18.15279 | 3680 ft | 163 kts | 125° |
| 2026-05-03 22:16 | 57.50532 | 18.17303 | 3502 ft | 172 kts | 105° |
| 2026-05-03 22:16 | 57.50504 | 18.19537 | 3299 ft | 175 kts | 83° |
| 2026-05-03 22:17 | 57.50884 | 18.21682 | 3098 ft | 175 kts | 62° |
| 2026-05-03 22:17 | 57.51619 | 18.23468 | 2949 ft | 173 kts | 42° |
| 2026-05-03 22:17 | 57.52586 | 18.24780 | 2782 ft | 171 kts | 24° |
| 2026-05-03 22:17 | 57.53669 | 18.25629 | 2577 ft | 168 kts | 17° |
| 2026-05-03 22:18 | 57.54756 | 18.26394 | 2364 ft | 165 kts | 16° |
| 2026-05-03 22:18 | 57.55795 | 18.27133 | 2150 ft | 157 kts | 17° |
| 2026-05-03 22:18 | 57.56802 | 18.27841 | 1933 ft | 153 kts | 16° |
| 2026-05-03 22:18 | 57.57796 | 18.28536 | 1747 ft | 152 kts | 17° |
| 2026-05-03 22:19 | 57.58775 | 18.29242 | 1542 ft | 150 kts | 17° |
| 2026-05-03 22:19 | 57.59745 | 18.29945 | 1344 ft | 149 kts | 17° |
| 2026-05-03 22:19 | 57.60705 | 18.30634 | 1145 ft | 147 kts | 17° |
| 2026-05-03 22:19 | 57.61660 | 18.31308 | 951 ft | 146 kts | 17° |
| 2026-05-03 22:20 | 57.62603 | 18.31975 | 760 ft | 143 kts | 19° |
| 2026-05-03 22:20 | 57.63531 | 18.32641 | 573 ft | 143 kts | 19° |
| 2026-05-03 22:20 | 57.64451 | 18.33306 | 385 ft | 141 kts | 19° |
| 2026-05-03 22:20 | 57.65366 | 18.33947 | 223 ft | 141 kts | 21° |
| 2026-05-03 22:21 | 57.66152 | 18.34538 | 158 ft | 85 kts | 21° |
| 2026-05-03 22:21 | 57.66458 | 18.34762 | 156 ft | 29 kts | 22° |
| 2026-05-03 22:21 | 57.66660 | 18.34890 | 154 ft | 32 kts | 24° |
| 2026-05-03 22:21 | 57.66871 | 18.35050 | 157 ft | 31 kts | 20° |
| 2026-05-03 22:22 | 57.67037 | 18.35184 | 159 ft | 17 kts | 31° |
| 2026-05-03 22:22 | 57.67082 | 18.35213 | 159 ft | 0 kts | 4° |
| 2026-05-03 22:22 | 57.67089 | 18.35213 | 159 ft | 2 kts | 356° |
| 2026-05-03 22:22 | 57.67122 | 18.35159 | 159 ft | 10 kts | 304° |
| 2026-05-03 22:23 | 57.67154 | 18.35012 | 159 ft | 14 kts | 290° |
| 2026-05-03 22:23 | 57.67110 | 18.34899 | 159 ft | 13 kts | 205° |
| 2026-05-03 22:23 | 57.67025 | 18.34833 | 159 ft | 12 kts | 201° |
| 2026-05-03 22:23 | 57.66940 | 18.34772 | 159 ft | 14 kts | 201° |
| 2026-05-03 22:24 | 57.66848 | 18.34704 | 159 ft | 15 kts | 199° |
| 2026-05-03 22:24 | 57.66748 | 18.34635 | 159 ft | 16 kts | 201° |
| 2026-05-03 22:24 | 57.66640 | 18.34556 | 159 ft | 17 kts | 201° |
| 2026-05-03 22:24 | 57.66529 | 18.34479 | 159 ft | 13 kts | 201° |
| 2026-05-03 22:25 | 57.66439 | 18.34413 | 159 ft | 14 kts | 199° |
| 2026-05-03 22:25 | 57.66342 | 18.34345 | 159 ft | 15 kts | 201° |
| 2026-05-03 22:25 | 57.66241 | 18.34272 | 159 ft | 15 kts | 201° |
| 2026-05-03 22:25 | 57.66141 | 18.34199 | 159 ft | 15 kts | 201° |
| 2026-05-03 22:26 | 57.66044 | 18.34130 | 159 ft | 15 kts | 200° |
| 2026-05-03 22:26 | 57.66006 | 18.34056 | 160 ft | 0 kts | 239° |
| 2026-05-03 22:26 | 57.66005 | 18.34055 | 160 ft | 1 kts | 238° |
| 2026-05-03 22:26 | 57.65995 | 18.34035 | 159 ft | 4 kts | 218° |
| 2026-05-03 22:27 | 57.65971 | 18.33994 | 159 ft | 5 kts | 242° |
| 2026-05-03 22:27 | 57.65989 | 18.33948 | 159 ft | 5 kts | 331° |
| 2026-05-03 22:27 | 57.66008 | 18.33932 | 159 ft | 0 kts | 336° |
| 2026-05-03 22:27 | 57.66014 | 18.33927 | 159 ft | 1 kts | 336° |
| 2026-05-03 22:28 | 57.66017 | 18.33925 | 159 ft | 0 kts | 336° |